Time;durP1;ratioP1;P1;durP2;ratioP2;P2;SDS_P1;SDS_P2;PMS_P1;PMS_P2;Temp;Humidity;BMP_temperature;BMP_pressure;BME280_temperature;BME280_humidity;BME280_pressure;Samples;Min_cycle;Max_cycle;Signal;HPM_P1;HPM_P2
2022/09/30 00:00:57;;;;;;;6.20;5.00;;;9.30;99.90;;;;;;5072017;28;20028;-82
2022/09/30 00:03:23;;;;;;;6.85;5.35;;;9.40;99.90;;;;;;5071844;28;20031;-82
2022/09/30 00:06:00;;;;;;;8.13;5.15;;;9.40;99.90;;;;;;5071783;28;20373;-82
2022/09/30 00:08:26;;;;;;;6.88;5.47;;;9.50;99.90;;;;;;5069970;28;20040;-82
2022/09/30 00:11:03;;;;;;;10.75;5.40;;;9.80;99.90;;;;;;5071403;28;20036;-83
2022/09/30 00:13:31;;;;;;;6.82;4.72;;;9.40;99.90;;;;;;5072158;28;20017;-82
2022/09/30 00:15:57;;;;;;;8.98;5.05;;;9.30;99.90;;;;;;5071674;28;20056;-83
2022/09/30 00:18:23;;;;;;;8.38;4.75;;;9.50;99.90;;;;;;5075638;28;20032;-83
2022/09/30 00:20:48;;;;;;;8.90;5.40;;;9.20;99.90;;;;;;5075226;28;20036;-82
2022/09/30 00:23:14;;;;;;;8.73;5.45;;;9.20;99.90;;;;;;5075142;28;20048;-82
2022/09/30 00:25:39;;;;;;;8.80;5.70;;;9.00;99.90;;;;;;5075166;28;20032;-83
2022/09/30 00:28:06;;;;;;;8.30;6.47;;;9.60;99.90;;;;;;5075723;28;20476;-83
2022/09/30 00:30:33;;;;;;;8.15;6.40;;;9.50;99.90;;;;;;5074901;28;20043;-83
2022/09/30 00:32:59;;;;;;;12.77;9.40;;;9.20;99.90;;;;;;5074769;28;20049;-83
2022/09/30 00:35:25;;;;;;;10.98;8.55;;;9.10;99.90;;;;;;5074943;28;20041;-82
2022/09/30 00:37:51;;;;;;;9.30;7.38;;;9.20;99.90;;;;;;5075583;28;20024;-82
2022/09/30 00:40:19;;;;;;;9.43;6.78;;;9.50;99.90;;;;;;5074827;28;20035;-83
2022/09/30 00:42:45;;;;;;;10.32;7.00;;;9.10;99.90;;;;;;5075077;28;20036;-82
2022/09/30 00:45:12;;;;;;;8.15;7.20;;;9.00;99.90;;;;;;5075079;28;20024;-83
2022/09/30 00:48:00;;;;;;;8.02;5.90;;;9.10;99.90;;;;;;5074895;28;20033;-83
2022/09/30 00:50:34;;;;;;;8.70;5.70;;;9.10;99.90;;;;;;5107272;28;20025;-82
2022/09/30 00:53:16;;;;;;;8.05;6.35;;;9.20;99.90;;;;;;5074780;28;20029;-83
2022/09/30 00:56:08;;;;;;;8.10;5.70;;;9.20;99.90;;;;;;5074626;28;20111;-82
2022/09/30 00:58:49;;;;;;;7.75;6.40;;;9.20;99.90;;;;;;5074460;28;20040;-83
2022/09/30 01:01:15;;;;;;;9.45;6.75;;;9.00;99.90;;;;;;5074513;28;20027;-83
2022/09/30 01:03:49;;;;;;;7.65;6.32;;;9.10;99.90;;;;;;5074320;28;20111;-82
2022/09/30 01:06:15;;;;;;;8.05;6.25;;;8.90;99.90;;;;;;5074439;28;20044;-82
2022/09/30 01:08:42;;;;;;;8.77;5.97;;;8.80;99.90;;;;;;5074533;28;20055;-82
2022/09/30 01:11:08;;;;;;;6.75;6.05;;;9.40;99.90;;;;;;5074471;28;20103;-82
2022/09/30 01:13:36;;;;;;;7.95;5.70;;;8.90;99.90;;;;;;5074111;28;20107;-83
2022/09/30 01:16:31;;;;;;;8.98;5.82;;;9.20;99.90;;;;;;5074543;28;20477;-82
2022/09/30 01:19:25;;;;;;;11.07;6.05;;;8.80;99.90;;;;;;5074279;28;20021;-82
2022/09/30 01:22:07;;;;;;;7.45;5.88;;;8.80;99.90;;;;;;5074328;28;20028;-82
2022/09/30 01:24:46;;;;;;;9.40;6.53;;;8.70;99.90;;;;;;5074241;28;20484;-83
2022/09/30 01:27:34;;;;;;;8.13;6.05;;;9.20;99.90;;;;;;5074034;28;20032;-82
2022/09/30 01:30:06;;;;;;;7.88;5.70;;;8.80;99.90;;;;;;5073313;28;20564;-83
2022/09/30 01:32:44;;;;;;;8.95;6.13;;;8.70;99.90;;;;;;5074278;28;20053;-83
2022/09/30 01:35:50;;;;;;;6.30;5.57;;;8.90;99.90;;;;;;5073447;28;20439;-83
2022/09/30 01:38:16;;;;;;;7.97;5.78;;;8.70;99.90;;;;;;5074077;28;20032;-82
2022/09/30 01:41:13;;;;;;;8.05;5.80;;;8.80;99.90;;;;;;5074077;28;20028;-83
2022/09/30 01:44:04;;;;;;;9.43;5.72;;;8.70;99.90;;;;;;5072071;28;20404;-82
2022/09/30 01:46:43;;;;;;;7.30;5.13;;;8.60;99.90;;;;;;5073602;28;20027;-82
2022/09/30 01:49:32;;;;;;;8.43;5.50;;;8.60;99.90;;;;;;5073968;28;20023;-83
2022/09/30 01:52:05;;;;;;;5.85;5.18;;;8.60;99.90;;;;;;5073288;28;20082;-82
2022/09/30 01:54:33;;;;;;;8.68;5.10;;;8.60;99.90;;;;;;5073440;28;20035;-82
2022/09/30 01:57:20;;;;;;;7.43;5.45;;;8.70;99.90;;;;;;5074214;28;20081;-83
2022/09/30 01:59:52;;;;;;;6.65;5.57;;;8.80;99.90;;;;;;5073330;28;20032;-83
2022/09/30 02:02:24;;;;;;;7.15;6.18;;;9.10;99.90;;;;;;5073596;28;20048;-83
2022/09/30 02:05:04;;;;;;;9.50;5.95;;;8.70;99.90;;;;;;5073424;28;20021;-83
2022/09/30 02:07:38;;;;;;;8.77;5.85;;;8.80;99.90;;;;;;5073653;28;20467;-83
2022/09/30 02:10:31;;;;;;;7.85;5.40;;;8.90;99.90;;;;;;5073192;28;20032;-82
2022/09/30 02:13:12;;;;;;;10.65;5.60;;;8.90;99.90;;;;;;5065437;28;20064;-83
2022/09/30 02:15:44;;;;;;;7.32;6.00;;;9.10;99.90;;;;;;5073867;28;20033;-82
2022/09/30 02:18:18;;;;;;;8.75;5.78;;;9.00;99.90;;;;;;5073183;28;20028;-83
2022/09/30 02:20:46;;;;;;;8.07;6.00;;;9.00;99.90;;;;;;5073018;28;20103;-83
2022/09/30 02:23:31;;;;;;;9.23;6.05;;;9.10;99.90;;;;;;5072979;28;20033;-83
2022/09/30 02:26:06;;;;;;;8.20;5.90;;;9.10;99.90;;;;;;5072903;28;20362;-83
2022/09/30 02:28:35;;;;;;;8.88;5.78;;;9.20;99.90;;;;;;5072963;28;20508;-82
2022/09/30 02:31:04;;;;;;;10.63;5.75;;;9.10;99.90;;;;;;5073102;28;20119;-82
2022/09/30 02:34:05;;;;;;;6.47;5.88;;;9.10;99.90;;;;;;5072449;28;20040;-83
2022/09/30 02:36:37;;;;;;;9.90;6.80;;;9.10;99.90;;;;;;5067568;28;20051;-83
2022/09/30 02:39:42;;;;;;;7.07;5.90;;;9.10;99.90;;;;;;5072506;28;20028;-83
2022/09/30 02:42:20;;;;;;;7.63;6.40;;;9.10;99.90;;;;;;5050937;28;20045;-83
2022/09/30 02:44:51;;;;;;;10.38;6.13;;;9.00;99.90;;;;;;5050357;28;20025;-82
2022/09/30 02:47:57;;;;;;;8.20;6.38;;;9.10;99.90;;;;;;5050570;28;20041;-83
2022/09/30 02:50:45;;;;;;;8.55;6.45;;;9.00;99.90;;;;;;5048539;28;20061;-82
2022/09/30 02:53:26;;;;;;;7.55;6.78;;;9.10;99.90;;;;;;5050288;28;20473;-82
2022/09/30 02:56:19;;;;;;;8.65;6.25;;;9.00;99.90;;;;;;5051024;28;20048;-86
2022/09/30 02:58:46;;;;;;;9.43;7.43;;;9.00;99.90;;;;;;5033842;28;20045;-86
2022/09/30 03:01:14;;;;;;;9.48;7.18;;;9.10;99.90;;;;;;5033324;28;20033;-86
2022/09/30 03:03:42;;;;;;;11.13;7.32;;;9.10;99.90;;;;;;5033561;28;20036;-86
2022/09/30 03:06:09;;;;;;;10.73;7.22;;;9.30;99.90;;;;;;5033780;28;20032;-85
2022/09/30 03:08:35;;;;;;;14.30;6.95;;;9.20;99.90;;;;;;5033444;28;20421;-86
2022/09/30 03:11:01;;;;;;;8.43;6.63;;;9.20;99.90;;;;;;5033567;28;20112;-86
2022/09/30 03:13:58;;;;;;;9.38;7.07;;;9.20;99.90;;;;;;5033892;28;20451;-85
2022/09/30 03:16:29;;;;;;;8.88;6.80;;;9.00;99.90;;;;;;5033801;28;20378;-86
2022/09/30 03:19:20;;;;;;;11.60;6.70;;;9.00;99.90;;;;;;5040259;28;20555;-86
2022/09/30 03:21:58;;;;;;;8.85;6.78;;;9.10;99.90;;;;;;5051972;28;20056;-86
2022/09/30 03:24:35;;;;;;;9.45;6.78;;;9.30;99.90;;;;;;5052202;28;20107;-86
2022/09/30 03:27:14;;;;;;;13.88;6.90;;;9.40;99.90;;;;;;5052439;28;20088;-86
2022/09/30 03:29:59;;;;;;;8.23;6.97;;;9.60;99.90;;;;;;5052114;28;20022;-86
2022/09/30 03:32:37;;;;;;;8.10;6.97;;;9.50;99.90;;;;;;5051601;28;20131;-86
2022/09/30 03:35:22;;;;;;;8.82;6.65;;;9.60;99.90;;;;;;5052016;28;20435;-86
2022/09/30 03:38:09;;;;;;;7.85;7.05;;;9.70;99.90;;;;;;5052133;28;20033;-86
2022/09/30 03:41:16;;;;;;;8.00;7.20;;;9.70;99.90;;;;;;5052192;28;20108;-86
2022/09/30 03:43:48;;;;;;;10.88;7.70;;;9.70;99.90;;;;;;5010224;28;20065;-86
2022/09/30 03:46:27;;;;;;;10.85;7.43;;;9.70;99.90;;;;;;5009839;28;20030;-86
2022/09/30 03:48:57;;;;;;;8.88;7.22;;;9.80;99.90;;;;;;5010455;28;20553;-86
2022/09/30 03:51:24;;;;;;;9.88;7.13;;;9.70;99.90;;;;;;4994142;28;20022;-86
2022/09/30 03:53:52;;;;;;;10.23;7.40;;;9.80;99.90;;;;;;5014127;28;20396;-86
2022/09/30 03:56:24;;;;;;;8.75;7.75;;;9.90;99.90;;;;;;5013916;28;20034;-86
2022/09/30 03:58:50;;;;;;;8.40;7.10;;;9.70;99.90;;;;;;5013919;28;20101;-86
2022/09/30 04:01:20;;;;;;;9.07;7.43;;;9.80;99.90;;;;;;5009128;28;20137;-86
2022/09/30 04:03:51;;;;;;;8.18;7.38;;;9.80;99.90;;;;;;5033385;28;20030;-86
2022/09/30 04:06:18;;;;;;;9.18;7.68;;;9.90;99.90;;;;;;5033774;28;20039;-87
2022/09/30 04:08:44;;;;;;;9.18;8.02;;;9.90;99.90;;;;;;5033269;28;20401;-86
2022/09/30 04:11:10;;;;;;;8.90;6.97;;;9.80;99.90;;;;;;5033993;28;20052;-85
2022/09/30 04:13:36;;;;;;;9.77;6.82;;;9.70;99.90;;;;;;5037028;28;20032;-86
2022/09/30 04:16:01;;;;;;;9.63;6.95;;;9.70;99.90;;;;;;5055321;28;20086;-86
2022/09/30 04:18:30;;;;;;;10.82;7.63;;;9.70;99.90;;;;;;5055408;28;20523;-86
2022/09/30 04:20:56;;;;;;;9.85;8.07;;;9.60;99.90;;;;;;5055693;28;20057;-86
2022/09/30 04:23:22;;;;;;;10.98;8.07;;;9.70;99.90;;;;;;5054893;28;20036;-86
2022/09/30 04:25:54;;;;;;;11.02;8.65;;;9.60;99.90;;;;;;5055230;28;20017;-86
2022/09/30 04:28:21;;;;;;;13.60;9.88;;;9.70;99.90;;;;;;5053766;28;20083;-86
2022/09/30 04:30:46;;;;;;;12.48;9.68;;;9.60;99.90;;;;;;5062822;28;20029;-86
2022/09/30 04:33:12;;;;;;;16.38;10.02;;;9.50;99.90;;;;;;5075139;28;20420;-86
2022/09/30 04:35:38;;;;;;;13.75;10.32;;;9.50;99.90;;;;;;5075213;28;20119;-86
2022/09/30 04:38:06;;;;;;;16.42;10.13;;;9.40;99.90;;;;;;5074861;28;20027;-86
2022/09/30 04:40:35;;;;;;;15.68;9.65;;;9.40;99.90;;;;;;5074827;28;20412;-86
2022/09/30 04:43:01;;;;;;;13.80;10.15;;;9.30;99.90;;;;;;5074925;28;20366;-86
2022/09/30 04:45:27;;;;;;;14.95;9.13;;;9.50;99.90;;;;;;5073162;28;20027;-86
2022/09/30 04:47:52;;;;;;;12.18;8.98;;;9.40;99.90;;;;;;5075252;28;20029;-86
2022/09/30 04:50:18;;;;;;;14.18;9.73;;;9.70;99.90;;;;;;5074763;28;20020;-86
2022/09/30 04:52:44;;;;;;;15.05;9.52;;;9.50;99.90;;;;;;5074885;28;20033;-86
2022/09/30 04:55:10;;;;;;;10.60;8.45;;;9.60;99.90;;;;;;5074750;28;20032;-86
2022/09/30 04:57:36;;;;;;;10.63;8.68;;;9.60;99.90;;;;;;5073648;28;20036;-86
2022/09/30 05:00:04;;;;;;;10.40;8.20;;;9.50;99.90;;;;;;5074421;28;20427;-86
2022/09/30 05:02:30;;;;;;;10.45;8.30;;;9.50;99.90;;;;;;5074537;28;20028;-86
2022/09/30 05:04:56;;;;;;;10.10;8.10;;;9.60;99.90;;;;;;5074753;28;20039;-86
2022/09/30 05:07:21;;;;;;;9.95;8.82;;;9.60;99.90;;;;;;5074960;28;20565;-86
2022/09/30 05:09:47;;;;;;;9.85;8.43;;;9.50;99.90;;;;;;5073167;28;20036;-85
2022/09/30 05:12:14;;;;;;;9.90;8.35;;;9.60;99.90;;;;;;5074467;28;20086;-86
2022/09/30 05:14:40;;;;;;;11.57;7.18;;;9.70;99.90;;;;;;5074229;28;20174;-86
2022/09/30 05:17:06;;;;;;;8.43;7.60;;;9.80;99.90;;;;;;5074533;28;20172;-86
2022/09/30 05:19:31;;;;;;;8.90;7.55;;;9.60;99.90;;;;;;5074306;28;20028;-86
2022/09/30 05:21:57;;;;;;;12.07;8.00;;;9.90;99.90;;;;;;5074097;28;20032;-86
2022/09/30 05:24:23;;;;;;;8.90;7.75;;;9.70;99.90;;;;;;5074222;28;20396;-86
2022/09/30 05:26:49;;;;;;;9.40;8.27;;;9.70;99.90;;;;;;5074523;28;20021;-86
2022/09/30 05:29:14;;;;;;;9.18;8.05;;;9.60;99.90;;;;;;5073718;28;20123;-85
2022/09/30 05:31:41;;;;;;;8.88;7.47;;;9.60;99.90;;;;;;5074185;28;20024;-86
2022/09/30 05:34:07;;;;;;;7.50;6.80;;;9.60;99.90;;;;;;5073775;28;20468;-86
2022/09/30 05:36:33;;;;;;;8.45;7.55;;;9.60;99.90;;;;;;5074608;28;20606;-86
2022/09/30 05:38:58;;;;;;;7.85;7.05;;;9.60;99.90;;;;;;5074064;28;20024;-86
2022/09/30 05:41:24;;;;;;;9.02;7.60;;;9.50;99.90;;;;;;5074218;28;20025;-86
2022/09/30 05:43:50;;;;;;;8.82;7.93;;;9.70;99.90;;;;;;5073840;28;20029;-86
2022/09/30 05:46:17;;;;;;;10.05;8.20;;;9.70;99.90;;;;;;5073954;28;20099;-86
2022/09/30 05:48:43;;;;;;;9.07;7.75;;;9.70;99.90;;;;;;5073983;28;20476;-86
2022/09/30 05:51:09;;;;;;;10.80;8.32;;;10.20;99.90;;;;;;5073023;28;20031;-86
2022/09/30 05:53:41;;;;;;;10.02;8.10;;;9.90;99.90;;;;;;5074257;28;20522;-86
2022/09/30 05:56:08;;;;;;;12.00;8.25;;;10.20;99.90;;;;;;5073621;28;20490;-86
2022/09/30 05:58:34;;;;;;;9.25;8.13;;;10.30;99.90;;;;;;5074163;28;20027;-86
2022/09/30 06:01:06;;;;;;;8.43;7.60;;;10.00;99.90;;;;;;5074055;28;20036;-86
2022/09/30 06:03:32;;;;;;;9.88;8.02;;;10.10;99.90;;;;;;5073330;28;20052;-86
2022/09/30 06:05:57;;;;;;;10.18;8.00;;;10.10;99.90;;;;;;5072429;28;20110;-86
2022/09/30 06:08:24;;;;;;;9.02;8.13;;;10.20;99.90;;;;;;5073082;28;20025;-86
2022/09/30 06:10:50;;;;;;;8.57;7.28;;;10.30;99.90;;;;;;5072567;28;20027;-86
2022/09/30 06:13:20;;;;;;;8.93;7.65;;;10.30;99.90;;;;;;5072964;28;20075;-86
2022/09/30 06:15:57;;;;;;;8.77;7.53;;;10.20;99.90;;;;;;5072381;28;20123;-87
2022/09/30 06:18:24;;;;;;;8.60;7.43;;;10.30;99.90;;;;;;5071606;28;20055;-86
2022/09/30 06:20:51;;;;;;;9.48;7.45;;;10.30;99.90;;;;;;5073000;28;20037;-86
2022/09/30 06:23:17;;;;;;;8.88;7.97;;;10.60;99.90;;;;;;5073062;28;20025;-86
2022/09/30 06:25:43;;;;;;;9.07;7.20;;;10.30;99.90;;;;;;5071511;28;20043;-87
2022/09/30 06:28:09;;;;;;;9.18;6.95;;;10.20;99.90;;;;;;5073040;28;20371;-86
2022/09/30 06:30:34;;;;;;;7.68;6.88;;;10.20;99.90;;;;;;5073063;28;20107;-86
2022/09/30 06:33:00;;;;;;;7.68;6.88;;;10.20;99.90;;;;;;5072585;28;20045;-86
2022/09/30 06:35:27;;;;;;;8.57;6.47;;;10.40;99.90;;;;;;5073432;28;20546;-86
2022/09/30 06:37:52;;;;;;;9.60;7.22;;;10.20;99.90;;;;;;5073082;28;20075;-86
2022/09/30 06:40:22;;;;;;;8.38;6.38;;;10.30;99.90;;;;;;5071683;28;20381;-86
2022/09/30 06:42:48;;;;;;;6.78;6.07;;;10.20;99.90;;;;;;5073816;28;20029;-86
2022/09/30 06:45:14;;;;;;;6.53;5.93;;;10.20;99.90;;;;;;5072874;28;20027;-86
2022/09/30 06:47:40;;;;;;;7.07;5.60;;;10.40;99.90;;;;;;5105060;28;20028;-86
2022/09/30 06:50:07;;;;;;;5.85;5.25;;;10.60;99.90;;;;;;5071358;28;20013;-88
2022/09/30 06:52:32;;;;;;;8.13;5.40;;;10.60;99.90;;;;;;5072641;28;20101;-86
2022/09/30 06:54:58;;;;;;;7.47;5.38;;;10.60;99.90;;;;;;5072068;28;20020;-86
2022/09/30 06:57:26;;;;;;;5.45;4.95;;;10.50;99.90;;;;;;5071963;28;20032;-83
2022/09/30 06:59:53;;;;;;;4.72;4.20;;;10.60;99.90;;;;;;5074308;28;20466;-84
2022/09/30 07:02:19;;;;;;;4.95;4.40;;;10.70;99.90;;;;;;5070611;28;20043;-86
2022/09/30 07:04:45;;;;;;;4.57;4.15;;;10.80;99.90;;;;;;5072474;28;20476;-85
2022/09/30 07:07:11;;;;;;;4.88;4.28;;;10.70;99.90;;;;;;5070650;28;20039;-85
2022/09/30 07:09:37;;;;;;;4.43;3.90;;;11.20;99.90;;;;;;5071696;28;20447;-84
2022/09/30 07:12:05;;;;;;;3.60;3.30;;;11.30;99.90;;;;;;5071376;28;20078;-85
2022/09/30 07:14:31;;;;;;;4.00;3.70;;;11.00;99.90;;;;;;5073375;28;20441;-87
2022/09/30 07:16:57;;;;;;;3.97;3.67;;;11.00;99.90;;;;;;5072402;28;20036;-87
2022/09/30 07:19:23;;;;;;;4.05;3.53;;;10.90;99.90;;;;;;5072536;28;20031;-87
2022/09/30 07:21:49;;;;;;;4.72;4.30;;;10.90;99.90;;;;;;5071831;28;20028;-86
2022/09/30 07:24:18;;;;;;;4.70;4.30;;;10.90;99.90;;;;;;5077094;28;20024;-86
2022/09/30 07:26:44;;;;;;;5.28;4.70;;;10.80;99.90;;;;;;5089320;28;20024;-83
2022/09/30 07:29:12;;;;;;;7.90;5.28;;;10.80;99.90;;;;;;5076026;28;20032;-83
2022/09/30 07:31:38;;;;;;;8.25;6.68;;;10.70;99.90;;;;;;5076017;28;20599;-84
2022/09/30 07:34:06;;;;;;;15.30;13.70;;;10.70;99.90;;;;;;5076081;28;20403;-83
2022/09/30 07:36:32;;;;;;;27.60;20.35;;;10.70;99.90;;;;;;5075939;28;20036;-83
2022/09/30 07:38:57;;;;;;;8.48;7.18;;;10.50;99.90;;;;;;5075504;28;20419;-82
2022/09/30 07:41:27;;;;;;;8.80;7.85;;;10.50;99.90;;;;;;5075971;28;20066;-83
2022/09/30 07:43:55;;;;;;;8.68;7.28;;;10.40;99.90;;;;;;5076267;28;20048;-83
2022/09/30 07:46:23;;;;;;;9.35;8.48;;;10.70;99.90;;;;;;5075714;28;20032;-83
2022/09/30 07:48:53;;;;;;;7.88;7.00;;;10.60;99.90;;;;;;5075905;28;20021;-83
2022/09/30 07:51:29;;;;;;;10.13;6.85;;;10.80;99.90;;;;;;5075873;28;20045;-84
2022/09/30 07:53:58;;;;;;;10.75;6.78;;;10.50;99.90;;;;;;5076397;28;20027;-84
2022/09/30 07:56:25;;;;;;;21.58;19.42;;;10.70;99.90;;;;;;5075746;28;20036;-84
2022/09/30 07:58:56;;;;;;;8.48;7.25;;;10.80;99.90;;;;;;5075778;28;20096;-83
2022/09/30 08:01:23;;;;;;;8.88;7.40;;;10.80;99.90;;;;;;5075651;28;20040;-84
2022/09/30 08:03:53;;;;;;;7.15;6.45;;;11.00;99.90;;;;;;5075852;28;20396;-84
2022/09/30 08:06:19;;;;;;;7.40;6.70;;;11.10;99.90;;;;;;5074283;28;20529;-84
2022/09/30 08:08:45;;;;;;;7.43;6.72;;;11.20;99.90;;;;;;5075350;28;20044;-83
2022/09/30 08:11:13;;;;;;;7.80;6.82;;;11.10;99.90;;;;;;5075849;28;20024;-84
2022/09/30 08:13:39;;;;;;;8.75;6.57;;;11.30;99.90;;;;;;5075359;28;20031;-84
2022/09/30 08:16:05;;;;;;;6.68;6.07;;;11.10;99.90;;;;;;5075696;28;20037;-84
2022/09/30 08:18:31;;;;;;;7.40;6.63;;;11.30;99.90;;;;;;5075571;28;20017;-84
2022/09/30 08:21:05;;;;;;;7.90;7.13;;;11.30;99.90;;;;;;5074040;28;20035;-84
2022/09/30 08:23:34;;;;;;;6.45;5.85;;;11.40;99.90;;;;;;5075098;28;20020;-84
2022/09/30 08:26:10;;;;;;;6.65;5.93;;;11.50;99.90;;;;;;5075108;28;20441;-83
2022/09/30 08:28:37;;;;;;;6.20;5.60;;;11.30;99.90;;;;;;5075250;28;20061;-84
2022/09/30 08:31:12;;;;;;;6.25;5.60;;;11.50;99.90;;;;;;5075262;28;20032;-84
2022/09/30 08:33:39;;;;;;;7.13;6.43;;;11.70;99.90;;;;;;5074759;28;20504;-84
2022/09/30 08:36:13;;;;;;;8.27;6.30;;;11.80;99.90;;;;;;5075623;28;20036;-84
2022/09/30 08:38:39;;;;;;;7.03;5.55;;;11.90;99.90;;;;;;5074846;28;20044;-84
2022/09/30 08:41:23;;;;;;;6.97;6.10;;;11.90;99.90;;;;;;5074939;28;20098;-84
2022/09/30 08:44:09;;;;;;;7.00;6.15;;;11.70;99.90;;;;;;5075199;28;20025;-84
2022/09/30 08:46:35;;;;;;;6.13;5.53;;;11.70;99.90;;;;;;5074671;28;20074;-84
2022/09/30 08:49:15;;;;;;;7.50;6.70;;;11.60;99.90;;;;;;5074627;28;20086;-84
2022/09/30 08:51:45;;;;;;;7.20;5.75;;;11.70;99.90;;;;;;5073898;28;20025;-84
2022/09/30 08:54:16;;;;;;;8.10;7.07;;;11.80;99.90;;;;;;5074906;28;20017;-84
2022/09/30 08:56:44;;;;;;;6.97;6.30;;;11.70;99.90;;;;;;5074432;28;20163;-84
2022/09/30 08:59:28;;;;;;;6.38;5.75;;;11.70;99.90;;;;;;5074824;28;20017;-84
2022/09/30 09:02:20;;;;;;;6.82;6.13;;;11.70;99.90;;;;;;5074129;28;20538;-83
2022/09/30 09:04:48;;;;;;;7.15;6.45;;;11.90;99.90;;;;;;5074110;28;20016;-84
2022/09/30 09:07:43;;;;;;;6.63;6.03;;;12.00;99.90;;;;;;5074720;28;20024;-84
2022/09/30 09:10:15;;;;;;;7.47;6.32;;;12.00;99.90;;;;;;5064394;28;20037;-84
2022/09/30 09:12:41;;;;;;;9.65;6.60;;;12.20;99.90;;;;;;5074312;28;20024;-84
2022/09/30 09:15:32;;;;;;;6.68;6.00;;;12.20;99.90;;;;;;5074103;28;20511;-84
2022/09/30 09:18:21;;;;;;;8.02;5.85;;;12.10;99.90;;;;;;5071520;28;20044;-83
2022/09/30 09:20:59;;;;;;;7.07;6.28;;;11.90;99.90;;;;;;5074201;28;20384;-84
2022/09/30 09:23:27;;;;;;;6.43;5.82;;;12.00;99.90;;;;;;5074586;28;20753;-83
2022/09/30 09:25:54;;;;;;;8.00;6.80;;;12.10;99.90;;;;;;5073337;28;20461;-90
2022/09/30 09:28:45;;;;;;;7.40;5.78;;;12.30;99.90;;;;;;5072884;28;20115;-87
2022/09/30 09:31:15;;;;;;;7.03;6.30;;;12.30;99.90;;;;;;5106412;28;20025;-87
2022/09/30 09:33:42;;;;;;;6.93;5.72;;;12.60;99.90;;;;;;5073463;28;20044;-88
2022/09/30 09:36:20;;;;;;;5.95;5.45;;;12.60;99.90;;;;;;5073627;28;20094;-89
2022/09/30 09:38:57;;;;;;;5.72;4.50;;;12.40;99.90;;;;;;5073453;28;20020;-86
2022/09/30 09:41:59;;;;;;;7.82;6.93;;;12.50;99.90;;;;;;5073503;28;20028;-89
2022/09/30 09:44:32;;;;;;;5.78;5.05;;;12.70;99.90;;;;;;5050636;28;20044;-87
2022/09/30 09:47:12;;;;;;;6.88;5.13;;;12.70;99.90;;;;;;5070094;28;20062;-87
2022/09/30 09:49:44;;;;;;;10.57;9.18;;;12.70;99.90;;;;;;5078536;28;20085;-83
2022/09/30 09:52:13;;;;;;;5.80;4.45;;;12.60;99.90;;;;;;5076122;28;20025;-82
2022/09/30 09:54:51;;;;;;;5.07;4.00;;;12.60;99.90;;;;;;5071179;28;20077;-83
2022/09/30 09:57:23;;;;;;;5.28;4.03;;;12.80;99.90;;;;;;5073236;28;20453;-84
2022/09/30 10:03:02;;;;;;;5.22;4.65;;;12.60;99.90;;;;;;5075273;28;20125;-86
2022/09/30 10:05:31;;;;;;;4.65;4.25;;;12.60;99.90;;;;;;5072965;28;20024;-86
2022/09/30 10:08:12;;;;;;;5.65;5.03;;;12.80;99.90;;;;;;5072897;28;20029;-87
2022/09/30 10:11:19;;;;;;;6.43;4.63;;;12.80;99.90;;;;;;5073048;28;20107;-86
2022/09/30 10:13:45;;;;;;;4.43;4.03;;;12.90;99.90;;;;;;5050650;28;20033;-86
2022/09/30 10:16:34;;;;;;;9.40;8.13;;;12.90;99.90;;;;;;5050705;28;20460;-87
2022/09/30 10:19:03;;;;;;;4.70;4.28;;;12.80;99.90;;;;;;5050035;28;20033;-87
2022/09/30 10:21:29;;;;;;;5.35;4.22;;;12.70;99.90;;;;;;5049829;28;20037;-85
2022/09/30 10:23:58;;;;;;;10.13;8.30;;;12.70;99.90;;;;;;5050664;28;20036;-85
2022/09/30 10:26:26;;;;;;;5.63;4.78;;;13.00;99.90;;;;;;5050757;28;20087;-86
2022/09/30 10:28:58;;;;;;;5.45;3.90;;;13.30;99.90;;;;;;5033534;28;20400;-87
2022/09/30 10:31:28;;;;;;;3.97;3.50;;;13.50;99.90;;;;;;5050497;28;20059;-86
2022/09/30 10:33:59;;;;;;;3.95;3.35;;;13.60;99.90;;;;;;5033233;28;20095;-87
2022/09/30 10:36:32;;;;;;;3.58;3.28;;;13.70;99.90;;;;;;5050839;28;20041;-87
2022/09/30 10:39:27;;;;;;;8.45;7.35;;;13.60;99.90;;;;;;5050034;28;20028;-86
2022/09/30 10:42:22;;;;;;;4.43;3.90;;;13.40;99.90;;;;;;5050096;28;20060;-86
2022/09/30 10:45:17;;;;;;;3.90;3.58;;;13.30;99.90;;;;;;5047611;28;20489;-85
2022/09/30 10:47:45;;;;;;;4.07;3.67;;;13.20;99.90;;;;;;5052214;28;20033;-87
2022/09/30 10:50:16;;;;;;;10.50;8.23;;;13.10;99.90;;;;;;5072068;28;20059;-88
2022/09/30 10:52:58;;;;;;;14.60;11.77;;;13.20;99.90;;;;;;5068849;28;20032;-88
2022/09/30 10:55:24;;;;;;;6.88;5.15;;;13.20;99.90;;;;;;5071757;28;20048;-88
2022/09/30 10:57:51;;;;;;;4.82;3.80;;;13.50;99.90;;;;;;5071210;28;20021;-88
2022/09/30 11:00:23;;;;;;;4.53;3.55;;;13.60;99.90;;;;;;5072082;28;20059;-87
2022/09/30 11:02:49;;;;;;;13.77;7.55;;;13.60;99.90;;;;;;5071751;28;20047;-87
2022/09/30 11:05:37;;;;;;;6.18;4.63;;;13.20;99.90;;;;;;5072325;28;20028;-87
2022/09/30 11:08:16;;;;;;;85.03;48.13;;;13.20;99.90;;;;;;5071686;28;20044;-86
2022/09/30 11:11:09;;;;;;;52.40;31.10;;;13.20;99.90;;;;;;5071834;28;20028;-88
2022/09/30 11:13:56;;;;;;;73.40;44.40;;;13.30;99.90;;;;;;5068202;28;20032;-87
2022/09/30 11:17:09;;;;;;;6.57;4.40;;;13.40;99.90;;;;;;5074139;28;20086;-89
2022/09/30 11:19:58;;;;;;;4.00;3.47;;;13.50;99.90;;;;;;5029834;28;20029;-87
2022/09/30 11:22:33;;;;;;;3.78;3.47;;;13.70;99.90;;;;;;5013117;28;20029;-87
2022/09/30 11:24:59;;;;;;;2.85;2.65;;;14.00;99.90;;;;;;5013061;28;20501;-87
2022/09/30 11:27:50;;;;;;;4.05;3.20;;;14.00;99.90;;;;;;5031175;28;20080;-90
2022/09/30 11:30:17;;;;;;;3.40;3.00;;;14.50;99.90;;;;;;5029836;28;20117;-85
2022/09/30 11:32:52;;;;;;;3.47;3.10;;;14.60;99.90;;;;;;5029857;28;20425;-84
2022/09/30 11:35:45;;;;;;;2.70;2.50;;;15.10;99.90;;;;;;5029685;28;20080;-84
2022/09/30 11:38:37;;;;;;;2.88;2.67;;;14.90;99.90;;;;;;5029472;28;20485;-83
2022/09/30 11:41:43;;;;;;;2.33;2.13;;;14.90;99.90;;;;;;5030048;28;20042;-89
2022/09/30 11:44:11;;;;;;;2.88;2.63;;;15.20;99.90;;;;;;5014233;28;20021;-87
2022/09/30 11:46:58;;;;;;;3.63;2.63;;;14.90;99.90;;;;;;5029792;28;20046;-86
2022/09/30 11:49:29;;;;;;;2.65;2.30;;;15.10;99.90;;;;;;5029123;28;20026;-84
2022/09/30 11:52:03;;;;;;;2.72;2.30;;;14.90;99.90;;;;;;5029971;28;20029;-85
2022/09/30 11:55:02;;;;;;;3.35;2.55;;;14.60;99.90;;;;;;5069780;28;20033;-84
2022/09/30 11:57:48;;;;;;;3.97;2.35;;;14.30;99.90;;;;;;5050625;28;20401;-84
2022/09/30 12:00:19;;;;;;;3.25;2.92;;;14.20;99.90;;;;;;5055413;28;20020;-85
2022/09/30 12:02:55;;;;;;;2.33;2.13;;;14.00;99.90;;;;;;5086044;28;20111;-84
2022/09/30 12:05:34;;;;;;;2.63;2.38;;;14.20;99.90;;;;;;5091874;28;20112;-85
2022/09/30 12:08:05;;;;;;;4.10;2.30;;;14.10;99.90;;;;;;5082012;28;20021;-84
2022/09/30 12:10:58;;;;;;;2.60;2.40;;;14.20;99.90;;;;;;5089046;28;20036;-83
2022/09/30 12:13:36;;;;;;;3.78;2.63;;;14.20;99.90;;;;;;5073243;28;20032;-84
2022/09/30 12:16:05;;;;;;;4.88;2.60;;;14.20;99.90;;;;;;5075671;28;20028;-87
2022/09/30 12:18:38;;;;;;;3.53;2.60;;;14.10;99.90;;;;;;5074899;28;20457;-85
2022/09/30 12:21:31;;;;;;;4.30;2.70;;;14.10;99.90;;;;;;5074594;28;20468;-85
2022/09/30 12:24:39;;;;;;;2.72;2.30;;;14.10;99.90;;;;;;5075047;28;20028;-85
2022/09/30 12:27:32;;;;;;;2.22;2.03;;;14.10;99.90;;;;;;5053184;28;20033;-85
2022/09/30 12:30:17;;;;;;;3.60;2.40;;;14.30;99.90;;;;;;5052417;28;20041;-84
2022/09/30 12:32:45;;;;;;;4.38;2.30;;;14.60;99.90;;;;;;5053561;28;20114;-85
2022/09/30 12:35:29;;;;;;;3.50;2.38;;;15.10;99.90;;;;;;5052671;28;20037;-85
2022/09/30 12:38:36;;;;;;;3.80;2.95;;;15.60;99.90;;;;;;5053027;28;20519;-85
2022/09/30 12:41:26;;;;;;;2.88;2.30;;;15.70;99.90;;;;;;5052761;28;20481;-85
2022/09/30 12:44:29;;;;;;;2.67;1.80;;;15.50;99.90;;;;;;5052493;28;20036;-85
2022/09/30 12:47:03;;;;;;;2.20;2.00;;;15.60;99.90;;;;;;5053017;28;20029;-85
2022/09/30 12:49:32;;;;;;;3.08;2.30;;;15.40;99.90;;;;;;5069020;28;20116;-85
2022/09/30 12:52:04;;;;;;;2.33;2.13;;;15.40;99.90;;;;;;5053041;28;20029;-85
2022/09/30 12:54:33;;;;;;;2.00;1.90;;;15.40;99.90;;;;;;5052740;28;20536;-85
2022/09/30 12:57:05;;;;;;;5.18;2.42;;;15.30;99.90;;;;;;5035352;28;20037;-84
2022/09/30 12:59:34;;;;;;;1.95;1.85;;;15.20;99.90;;;;;;5052435;28;20028;-85
2022/09/30 13:02:03;;;;;;;2.45;2.17;;;15.30;99.90;;;;;;5058629;28;20044;-85
2022/09/30 13:04:33;;;;;;;2.42;2.22;;;15.10;99.90;;;;;;5074480;28;20020;-85
2022/09/30 13:06:59;;;;;;;2.25;1.90;;;14.80;99.90;;;;;;5075100;28;20038;-85
2022/09/30 13:09:56;;;;;;;3.22;2.10;;;14.80;99.90;;;;;;5073642;28;20021;-85
2022/09/30 13:12:43;;;;;;;2.38;2.15;;;14.80;99.90;;;;;;5074406;28;20021;-85
2022/09/30 13:15:27;;;;;;;2.50;2.30;;;14.60;99.90;;;;;;5074194;28;20503;-85
2022/09/30 13:17:52;;;;;;;3.70;1.92;;;14.30;99.90;;;;;;5074144;28;20456;-85
2022/09/30 13:20:49;;;;;;;2.20;2.00;;;14.40;99.90;;;;;;5074527;28;20132;-85
2022/09/30 13:23:36;;;;;;;2.22;1.98;;;14.40;99.90;;;;;;5074086;28;20048;-85
2022/09/30 13:26:06;;;;;;;2.95;2.20;;;14.40;99.90;;;;;;5073211;28;20035;-85